sensor_id;sensor_type;location;lat;lon;timestamp;pressure;altitude;pressure_sealevel;temperature;humidity
48015;BME280;33780;51.034;7.120;2023-02-28T00:01:05;102130.59;;;0.92;60.59
48015;BME280;33780;51.034;7.120;2023-02-28T00:03:30;102135.03;;;0.88;60.88
48015;BME280;33780;51.034;7.120;2023-02-28T00:06:00;102135.94;;;0.87;61.44
48015;BME280;33780;51.034;7.120;2023-02-28T00:08:25;102134.22;;;0.86;61.41
48015;BME280;33780;51.034;7.120;2023-02-28T00:10:52;102133.44;;;0.83;61.02
48015;BME280;33780;51.034;7.120;2023-02-28T00:13:17;102135.25;;;0.81;61.13
48015;BME280;33780;51.034;7.120;2023-02-28T00:15:42;102138.78;;;0.80;60.87
48015;BME280;33780;51.034;7.120;2023-02-28T00:18:07;102134.44;;;0.77;61.03
48015;BME280;33780;51.034;7.120;2023-02-28T00:20:33;102131.84;;;0.76;61.42
48015;BME280;33780;51.034;7.120;2023-02-28T00:22:58;102136.28;;;0.74;60.75
48015;BME280;33780;51.034;7.120;2023-02-28T00:25:25;102137.19;;;0.71;61.60
48015;BME280;33780;51.034;7.120;2023-02-28T00:27:51;102144.22;;;0.71;61.24
48015;BME280;33780;51.034;7.120;2023-02-28T00:30:22;102132.00;;;0.68;61.58
48015;BME280;33780;51.034;7.120;2023-02-28T00:32:48;102136.44;;;0.66;61.08
48015;BME280;33780;51.034;7.120;2023-02-28T00:35:14;102139.06;;;0.66;61.34
48015;BME280;33780;51.034;7.120;2023-02-28T00:37:39;102138.25;;;0.64;61.64
48015;BME280;33780;51.034;7.120;2023-02-28T00:40:05;102144.44;;;0.62;60.93
48015;BME280;33780;51.034;7.120;2023-02-28T00:42:31;102140.13;;;0.59;61.54
48015;BME280;33780;51.034;7.120;2023-02-28T00:44:57;102136.69;;;0.55;61.50
48015;BME280;33780;51.034;7.120;2023-02-28T00:47:22;102141.09;;;0.55;61.77
48015;BME280;33780;51.034;7.120;2023-02-28T00:49:47;102140.22;;;0.53;61.70
48015;BME280;33780;51.034;7.120;2023-02-28T00:52:13;102138.53;;;0.50;61.52
48015;BME280;33780;51.034;7.120;2023-02-28T00:54:38;102135.94;;;0.49;61.75
48015;BME280;33780;51.034;7.120;2023-02-28T00:57:03;102141.25;;;0.47;61.70
48015;BME280;33780;51.034;7.120;2023-02-28T00:59:29;102131.66;;;0.45;61.39
48015;BME280;33780;51.034;7.120;2023-02-28T01:01:54;102137.84;;;0.42;61.34
48015;BME280;33780;51.034;7.120;2023-02-28T01:04:19;102144.88;;;0.42;61.65
48015;BME280;33780;51.034;7.120;2023-02-28T01:06:45;102151.91;;;0.41;61.65
48015;BME280;33780;51.034;7.120;2023-02-28T01:09:11;102142.31;;;0.39;61.58
48015;BME280;33780;51.034;7.120;2023-02-28T01:11:37;102137.09;;;0.37;62.12
48015;BME280;33780;51.034;7.120;2023-02-28T01:14:03;102140.63;;;0.35;61.56
48015;BME280;33780;51.034;7.120;2023-02-28T01:16:29;102140.66;;;0.33;61.57
48015;BME280;33780;51.034;7.120;2023-02-28T01:18:54;102138.06;;;0.32;61.67
48015;BME280;33780;51.034;7.120;2023-02-28T01:21:21;102138.09;;;0.30;61.79
48015;BME280;33780;51.034;7.120;2023-02-28T01:23:46;102141.66;;;0.27;62.07
48015;BME280;33780;51.034;7.120;2023-02-28T01:26:18;102137.31;;;0.25;61.90
48015;BME280;33780;51.034;7.120;2023-02-28T01:28:44;102137.31;;;0.25;61.96
48015;BME280;33780;51.034;7.120;2023-02-28T01:31:10;102136.47;;;0.24;61.85
48015;BME280;33780;51.034;7.120;2023-02-28T01:33:36;102140.03;;;0.22;62.26
48015;BME280;33780;51.034;7.120;2023-02-28T01:36:04;102140.09;;;0.19;61.72
48015;BME280;33780;51.034;7.120;2023-02-28T01:38:30;102133.06;;;0.18;62.26
48015;BME280;33780;51.034;7.120;2023-02-28T01:40:56;102138.31;;;0.18;61.95
48015;BME280;33780;51.034;7.120;2023-02-28T01:43:29;102141.03;;;0.15;61.92
48015;BME280;33780;51.034;7.120;2023-02-28T01:45:56;102133.16;;;0.13;62.27
48015;BME280;33780;51.034;7.120;2023-02-28T01:48:26;102120.94;;;0.11;62.13
48015;BME280;33780;51.034;7.120;2023-02-28T01:50:54;102130.59;;;0.10;62.17
48015;BME280;33780;51.034;7.120;2023-02-28T01:53:24;102121.88;;;0.08;62.24
48015;BME280;33780;51.034;7.120;2023-02-28T01:55:52;102117.53;;;0.06;62.31
48015;BME280;33780;51.034;7.120;2023-02-28T01:58:18;102114.06;;;0.04;61.97
48015;BME280;33780;51.034;7.120;2023-02-28T02:00:44;102116.78;;;0.01;62.18
48015;BME280;33780;51.034;7.120;2023-02-28T02:03:12;102121.16;;;-0.02;62.32
48015;BME280;33780;51.034;7.120;2023-02-28T02:05:39;102115.06;;;-0.04;62.37
48015;BME280;33780;51.034;7.120;2023-02-28T02:08:11;102117.75;;;-0.05;62.14
48015;BME280;33780;51.034;7.120;2023-02-28T02:10:55;102106.38;;;-0.07;62.50
48015;BME280;33780;51.034;7.120;2023-02-28T02:23:12;102113.59;;;-0.17;62.16
48015;BME280;33780;51.034;7.120;2023-02-28T02:25:45;102099.56;;;-0.19;62.65
48015;BME280;33780;51.034;7.120;2023-02-28T02:28:36;102098.78;;;-0.22;62.60
48015;BME280;33780;51.034;7.120;2023-02-28T02:36:42;102092.72;;;-0.26;62.94
48015;BME280;33780;51.034;7.120;2023-02-28T02:39:19;102094.50;;;-0.28;62.63
48015;BME280;33780;51.034;7.120;2023-02-28T02:41:53;102097.16;;;-0.29;62.47
48015;BME280;33780;51.034;7.120;2023-02-28T02:44:52;102092.84;;;-0.32;62.67
48015;BME280;33780;51.034;7.120;2023-02-28T02:47:24;102097.28;;;-0.36;62.53
48015;BME280;33780;51.034;7.120;2023-02-28T02:49:55;102094.66;;;-0.37;62.40
48015;BME280;33780;51.034;7.120;2023-02-28T02:52:25;102096.47;;;-0.39;62.45
48015;BME280;33780;51.034;7.120;2023-02-28T02:54:56;102102.66;;;-0.42;62.99
48015;BME280;33780;51.034;7.120;2023-02-28T02:57:26;102100.06;;;-0.43;62.68
48015;BME280;33780;51.034;7.120;2023-02-28T02:59:56;102100.06;;;-0.43;62.72
48015;BME280;33780;51.034;7.120;2023-02-28T03:02:23;102100.94;;;-0.44;62.79
48015;BME280;33780;51.034;7.120;2023-02-28T03:04:52;102096.63;;;-0.47;62.62
48015;BME280;33780;51.034;7.120;2023-02-28T03:07:18;102098.38;;;-0.47;63.05
48015;BME280;33780;51.034;7.120;2023-02-28T03:09:51;102096.69;;;-0.50;62.73
48015;BME280;33780;51.034;7.120;2023-02-28T03:12:17;102097.56;;;-0.51;62.92
48015;BME280;33780;51.034;7.120;2023-02-28T03:15:14;102100.22;;;-0.52;62.64
48015;BME280;33780;51.034;7.120;2023-02-28T03:18:43;102097.63;;;-0.55;62.74
48015;BME280;33780;51.034;7.120;2023-02-28T03:20:55;102086.28;;;-0.57;62.98
48015;BME280;33780;51.034;7.120;2023-02-28T03:23:41;102088.94;;;-0.59;62.91
48015;BME280;33780;51.034;7.120;2023-02-28T03:26:21;102094.22;;;-0.61;62.94
48015;BME280;33780;51.034;7.120;2023-02-28T03:29:08;102089.88;;;-0.62;62.82
48015;BME280;33780;51.034;7.120;2023-02-28T03:31:44;102090.78;;;-0.64;62.72
48015;BME280;33780;51.034;7.120;2023-02-28T03:34:21;102082.06;;;-0.66;62.85
48015;BME280;33780;51.034;7.120;2023-02-28T03:36:52;102082.97;;;-0.67;62.97
48015;BME280;33780;51.034;7.120;2023-02-28T03:39:22;102089.97;;;-0.68;62.76
48015;BME280;33780;51.034;7.120;2023-02-28T03:41:58;102082.13;;;-0.69;63.10
48015;BME280;33780;51.034;7.120;2023-02-28T03:44:29;102085.66;;;-0.70;62.88
48015;BME280;33780;51.034;7.120;2023-02-28T03:47:02;102092.66;;;-0.71;62.67
48015;BME280;33780;51.034;7.120;2023-02-28T03:49:32;102087.44;;;-0.74;63.18
48015;BME280;33780;51.034;7.120;2023-02-28T03:52:03;102090.09;;;-0.75;63.03
48015;BME280;33780;51.034;7.120;2023-02-28T03:54:32;102090.09;;;-0.75;62.83
48015;BME280;33780;51.034;7.120;2023-02-28T03:57:10;102091.84;;;-0.76;62.94
48015;BME280;33780;51.034;7.120;2023-02-28T03:59:40;102092.75;;;-0.77;63.03
48015;BME280;33780;51.034;7.120;2023-02-28T04:02:08;102091.00;;;-0.78;62.94
48015;BME280;33780;51.034;7.120;2023-02-28T04:04:33;102095.41;;;-0.78;63.29
48015;BME280;33780;51.034;7.120;2023-02-28T04:07:05;102098.09;;;-0.81;63.08
48015;BME280;33780;51.034;7.120;2023-02-28T04:09:31;102091.97;;;-0.82;63.42
48015;BME280;33780;51.034;7.120;2023-02-28T04:11:56;102100.78;;;-0.84;63.56
48015;BME280;33780;51.034;7.120;2023-02-28T04:14:22;102099.91;;;-0.85;63.24
48015;BME280;33780;51.034;7.120;2023-02-28T04:16:47;102105.16;;;-0.85;63.57
48015;BME280;33780;51.034;7.120;2023-02-28T04:19:13;102106.94;;;-0.87;63.47
48015;BME280;33780;51.034;7.120;2023-02-28T04:21:49;102098.22;;;-0.89;63.13
48015;BME280;33780;51.034;7.120;2023-02-28T04:24:20;102100.84;;;-0.91;63.59
48015;BME280;33780;51.034;7.120;2023-02-28T04:26:47;102102.63;;;-0.91;63.21
48015;BME280;33780;51.034;7.120;2023-02-28T04:29:18;102105.28;;;-0.93;63.22
48015;BME280;33780;51.034;7.120;2023-02-28T04:31:44;102103.53;;;-0.94;63.47
48015;BME280;33780;51.034;7.120;2023-02-28T04:34:09;102107.91;;;-0.94;63.64
48015;BME280;33780;51.034;7.120;2023-02-28T04:36:35;102113.19;;;-0.96;63.64
48015;BME280;33780;51.034;7.120;2023-02-28T04:39:00;102110.59;;;-0.97;63.63
48015;BME280;33780;51.034;7.120;2023-02-28T04:41:26;102114.13;;;-0.98;63.58
48015;BME280;33780;51.034;7.120;2023-02-28T04:43:51;102112.41;;;-0.99;63.61
48015;BME280;33780;51.034;7.120;2023-02-28T04:46:17;102102.81;;;-1.02;64.08
48015;BME280;33780;51.034;7.120;2023-02-28T04:48:43;102111.59;;;-1.03;63.68
48015;BME280;33780;51.034;7.120;2023-02-28T04:51:11;102112.50;;;-1.05;63.83
48015;BME280;33780;51.034;7.120;2023-02-28T04:53:38;102116.03;;;-1.06;63.51
48015;BME280;33780;51.034;7.120;2023-02-28T04:56:05;102118.63;;;-1.08;63.46
48015;BME280;33780;51.034;7.120;2023-02-28T04:58:31;102113.41;;;-1.09;63.93
48015;BME280;33780;51.034;7.120;2023-02-28T05:01:17;102118.72;;;-1.12;63.73
48015;BME280;33780;51.034;7.120;2023-02-28T05:03:43;102127.47;;;-1.12;63.56
48015;BME280;33780;51.034;7.120;2023-02-28T05:06:09;102132.72;;;-1.12;64.08
48015;BME280;33780;51.034;7.120;2023-02-28T05:08:35;102130.97;;;-1.13;64.04
48015;BME280;33780;51.034;7.120;2023-02-28T05:11:01;102131.88;;;-1.14;64.00
48015;BME280;33780;51.034;7.120;2023-02-28T05:13:27;102133.63;;;-1.14;63.67
48015;BME280;33780;51.034;7.120;2023-02-28T05:15:53;102132.78;;;-1.15;63.76
48015;BME280;33780;51.034;7.120;2023-02-28T05:18:18;102128.41;;;-1.16;63.67
48015;BME280;33780;51.034;7.120;2023-02-28T05:20:43;102133.63;;;-1.14;64.17
48015;BME280;33780;51.034;7.120;2023-02-28T05:23:12;102124.06;;;-1.17;63.89
48015;BME280;33780;51.034;7.120;2023-02-28T05:25:38;102129.31;;;-1.17;64.04
48015;BME280;33780;51.034;7.120;2023-02-28T05:28:03;102131.06;;;-1.17;64.01
48015;BME280;33780;51.034;7.120;2023-02-28T05:30:29;102126.72;;;-1.20;64.10
48015;BME280;33780;51.034;7.120;2023-02-28T05:32:55;102137.25;;;-1.22;64.17
48015;BME280;33780;51.034;7.120;2023-02-28T05:35:20;102125.03;;;-1.24;64.14
48015;BME280;33780;51.034;7.120;2023-02-28T05:37:45;102123.28;;;-1.24;64.32
48015;BME280;33780;51.034;7.120;2023-02-28T05:40:11;102132.03;;;-1.23;64.20
48015;BME280;33780;51.034;7.120;2023-02-28T05:42:37;102133.78;;;-1.24;64.27
48015;BME280;33780;51.034;7.120;2023-02-28T05:45:04;102127.69;;;-1.26;64.29
48015;BME280;33780;51.034;7.120;2023-02-28T05:47:29;102128.56;;;-1.27;64.09
48015;BME280;33780;51.034;7.120;2023-02-28T05:49:54;102130.31;;;-1.27;63.93
48015;BME280;33780;51.034;7.120;2023-02-28T05:52:20;102125.97;;;-1.30;64.03
48015;BME280;33780;51.034;7.120;2023-02-28T05:54:46;102132.09;;;-1.29;64.23
48015;BME280;33780;51.034;7.120;2023-02-28T05:57:11;102129.50;;;-1.31;64.07
48015;BME280;33780;51.034;7.120;2023-02-28T05:59:36;102128.66;;;-1.33;64.31
48015;BME280;33780;51.034;7.120;2023-02-28T06:02:14;102134.81;;;-1.35;64.26
48015;BME280;33780;51.034;7.120;2023-02-28T06:04:40;102125.22;;;-1.38;64.24
48015;BME280;33780;51.034;7.120;2023-02-28T06:07:07;102132.25;;;-1.38;64.18
48015;BME280;33780;51.034;7.120;2023-02-28T06:09:33;102128.75;;;-1.39;64.38
48015;BME280;33780;51.034;7.120;2023-02-28T06:11:59;102122.63;;;-1.39;64.34
48015;BME280;33780;51.034;7.120;2023-02-28T06:14:25;102130.53;;;-1.41;64.68
48015;BME280;33780;51.034;7.120;2023-02-28T06:16:50;102135.81;;;-1.42;64.71
48015;BME280;33780;51.034;7.120;2023-02-28T06:19:15;102134.94;;;-1.44;64.39
48015;BME280;33780;51.034;7.120;2023-02-28T06:21:41;102140.19;;;-1.46;64.66
48015;BME280;33780;51.034;7.120;2023-02-28T06:24:07;102142.81;;;-1.46;64.55
48015;BME280;33780;51.034;7.120;2023-02-28T06:26:32;102144.59;;;-1.46;64.32
48015;BME280;33780;51.034;7.120;2023-02-28T06:28:58;102147.22;;;-1.46;64.47
48015;BME280;33780;51.034;7.120;2023-02-28T06:31:23;102154.22;;;-1.47;64.65
48015;BME280;33780;51.034;7.120;2023-02-28T06:33:51;102144.59;;;-1.48;64.57
48015;BME280;33780;51.034;7.120;2023-02-28T06:36:17;102159.50;;;-1.48;64.77
48015;BME280;33780;51.034;7.120;2023-02-28T06:38:43;102158.63;;;-1.49;64.29
48015;BME280;33780;51.034;7.120;2023-02-28T06:41:09;102168.25;;;-1.49;64.50
48015;BME280;33780;51.034;7.120;2023-02-28T06:43:37;102167.38;;;-1.50;64.54
48015;BME280;33780;51.034;7.120;2023-02-28T06:46:06;102163.00;;;-1.49;64.68
48015;BME280;33780;51.034;7.120;2023-02-28T06:48:32;102176.13;;;-1.49;64.26
48015;BME280;33780;51.034;7.120;2023-02-28T06:53:28;102170.91;;;-1.51;64.58
48015;BME280;33780;51.034;7.120;2023-02-28T06:55:54;102182.25;;;-1.49;64.41
48015;BME280;33780;51.034;7.120;2023-02-28T06:58:19;102179.66;;;-1.50;64.69
48015;BME280;33780;51.034;7.120;2023-02-28T07:00:45;102184.88;;;-1.49;64.85
48015;BME280;33780;51.034;7.120;2023-02-28T07:03:15;102191.00;;;-1.48;64.40
48015;BME280;33780;51.034;7.120;2023-02-28T07:05:40;102184.88;;;-1.49;64.61
48015;BME280;33780;51.034;7.120;2023-02-28T07:08:06;102196.25;;;-1.48;64.63
48015;BME280;33780;51.034;7.120;2023-02-28T07:10:32;102185.75;;;-1.48;64.71
48015;BME280;33780;51.034;7.120;2023-02-28T07:12:59;102191.00;;;-1.48;64.67
48015;BME280;33780;51.034;7.120;2023-02-28T07:15:26;102190.97;;;-1.47;64.22
48015;BME280;33780;51.034;7.120;2023-02-28T07:17:52;102191.84;;;-1.46;64.82
48015;BME280;33780;51.034;7.120;2023-02-28T07:20:17;102193.56;;;-1.45;64.66
48015;BME280;33780;51.034;7.120;2023-02-28T07:22:42;102193.53;;;-1.44;64.82
48015;BME280;33780;51.034;7.120;2023-02-28T07:25:08;102193.56;;;-1.42;64.31
48015;BME280;33780;51.034;7.120;2023-02-28T07:27:34;102203.16;;;-1.40;65.12
48015;BME280;33780;51.034;7.120;2023-02-28T07:29:59;102190.00;;;-1.38;65.03
48015;BME280;33780;51.034;7.120;2023-02-28T07:32:27;102197.81;;;-1.35;64.86
48015;BME280;33780;51.034;7.120;2023-02-28T07:34:53;102196.91;;;-1.33;65.13
48015;BME280;33780;51.034;7.120;2023-02-28T07:37:18;102207.38;;;-1.30;65.08
48015;BME280;33780;51.034;7.120;2023-02-28T07:39:43;102196.81;;;-1.27;64.74
48015;BME280;33780;51.034;7.120;2023-02-28T07:42:09;102203.81;;;-1.24;65.31
48015;BME280;33780;51.034;7.120;2023-02-28T07:44:37;102205.56;;;-1.23;65.21
48015;BME280;33780;51.034;7.120;2023-02-28T07:47:09;102194.97;;;-1.18;65.01
48015;BME280;33780;51.034;7.120;2023-02-28T07:49:38;102190.56;;;-1.15;65.41
48015;BME280;33780;51.034;7.120;2023-02-28T07:52:05;102200.16;;;-1.12;65.18
48015;BME280;33780;51.034;7.120;2023-02-28T07:54:31;102203.59;;;-1.07;65.49
48015;BME280;33780;51.034;7.120;2023-02-28T07:56:56;102202.66;;;-1.03;64.79
48015;BME280;33780;51.034;7.120;2023-02-28T07:59:21;102194.69;;;-0.99;65.46
48015;BME280;33780;51.034;7.120;2023-02-28T08:01:46;102194.63;;;-0.94;64.99
48015;BME280;33780;51.034;7.120;2023-02-28T08:04:14;102196.31;;;-0.90;65.06
48015;BME280;33780;51.034;7.120;2023-02-28T08:06:39;102194.50;;;-0.85;64.98
48015;BME280;33780;51.034;7.120;2023-02-28T08:09:05;102195.28;;;-0.78;65.14
48015;BME280;33780;51.034;7.120;2023-02-28T08:11:30;102202.19;;;-0.71;65.10
48015;BME280;33780;51.034;7.120;2023-02-28T08:13:55;102197.72;;;-0.66;64.66
48015;BME280;33780;51.034;7.120;2023-02-28T08:16:21;102204.59;;;-0.59;64.83
48015;BME280;33780;51.034;7.120;2023-02-28T08:18:48;102195.75;;;-0.52;64.40
48015;BME280;33780;51.034;7.120;2023-02-28T08:21:14;102206.13;;;-0.44;64.23
48015;BME280;33780;51.034;7.120;2023-02-28T08:23:39;102205.16;;;-0.39;64.31
48015;BME280;33780;51.034;7.120;2023-02-28T08:26:05;102197.19;;;-0.34;63.74
48015;BME280;33780;51.034;7.120;2023-02-28T08:28:30;102204.94;;;-0.26;64.01
48015;BME280;33780;51.034;7.120;2023-02-28T08:30:56;102194.28;;;-0.19;63.80
48015;BME280;33780;51.034;7.120;2023-02-28T08:33:22;102203.81;;;-0.12;63.85
48015;BME280;33780;51.034;7.120;2023-02-28T08:35:48;102200.19;;;-0.06;63.36
48015;BME280;33780;51.034;7.120;2023-02-28T08:38:13;102208.88;;;0.01;61.81
48015;BME280;33780;51.034;7.120;2023-02-28T08:40:38;102196.47;;;0.07;62.33
48015;BME280;33780;51.034;7.120;2023-02-28T08:43:04;102201.59;;;0.13;62.01
48015;BME280;33780;51.034;7.120;2023-02-28T08:45:29;102193.56;;;0.21;62.15
48015;BME280;33780;51.034;7.120;2023-02-28T08:47:55;102207.47;;;0.27;62.06
48015;BME280;33780;51.034;7.120;2023-02-28T08:50:21;102201.19;;;0.35;62.48
48015;BME280;33780;51.034;7.120;2023-02-28T08:52:46;102202.84;;;0.40;60.44
48015;BME280;33780;51.034;7.120;2023-02-28T08:55:11;102200.06;;;0.46;60.26
48015;BME280;33780;51.034;7.120;2023-02-28T08:57:36;102213.09;;;0.54;60.49
48015;BME280;33780;51.034;7.120;2023-02-28T09:00:03;102198.03;;;0.60;61.02
48015;BME280;33780;51.034;7.120;2023-02-28T09:02:32;102204.06;;;0.66;59.23
48015;BME280;33780;51.034;7.120;2023-02-28T09:04:58;102203.94;;;0.72;59.26
48015;BME280;33780;51.034;7.120;2023-02-28T09:07:24;102201.22;;;0.76;60.13
48015;BME280;33780;51.034;7.120;2023-02-28T09:09:49;102202.03;;;0.78;56.74
48015;BME280;33780;51.034;7.120;2023-02-28T09:12:25;102188.72;;;0.84;57.77
48015;BME280;33780;51.034;7.120;2023-02-28T09:14:51;102198.28;;;0.90;58.25
48015;BME280;33780;51.034;7.120;2023-02-28T09:17:17;102199.94;;;0.94;56.01
48015;BME280;33780;51.034;7.120;2023-02-28T09:19:42;102198.06;;;0.99;56.24
48015;BME280;33780;51.034;7.120;2023-02-28T09:22:09;102188.25;;;1.06;57.00
48015;BME280;33780;51.034;7.120;2023-02-28T09:24:36;102186.44;;;1.09;55.69
48015;BME280;33780;51.034;7.120;2023-02-28T09:27:01;102181.91;;;1.14;55.84
48015;BME280;33780;51.034;7.120;2023-02-28T09:29:26;102184.38;;;1.20;57.18
48015;BME280;33780;51.034;7.120;2023-02-28T09:31:52;102181.63;;;1.27;55.56
48015;BME280;33780;51.034;7.120;2023-02-28T09:34:17;102185.91;;;1.31;56.05
48015;BME280;33780;51.034;7.120;2023-02-28T09:36:43;102183.13;;;1.37;56.65
48015;BME280;33780;51.034;7.120;2023-02-28T09:39:08;102179.47;;;1.42;57.13
48015;BME280;33780;51.034;7.120;2023-02-28T09:41:41;102176.75;;;1.47;56.97
48015;BME280;33780;51.034;7.120;2023-02-28T09:44:37;102178.34;;;1.52;56.02
48015;BME280;33780;51.034;7.120;2023-02-28T09:47:19;102172.09;;;1.57;52.91
48015;BME280;33780;51.034;7.120;2023-02-28T09:49:47;102189.47;;;1.65;55.00
48015;BME280;33780;51.034;7.120;2023-02-28T09:52:29;102183.03;;;1.75;54.14
48015;BME280;33780;51.034;7.120;2023-02-28T09:58:04;102187.84;;;1.94;51.71
48015;BME280;33780;51.034;7.120;2023-02-28T10:00:37;102184.13;;;2.01;51.76
48015;BME280;33780;51.034;7.120;2023-02-28T10:05:52;102181.22;;;2.10;51.22
48015;BME280;33780;51.034;7.120;2023-02-28T10:08:25;102181.09;;;2.16;51.49
48015;BME280;33780;51.034;7.120;2023-02-28T10:10:55;102180.19;;;2.17;49.95
48015;BME280;33780;51.034;7.120;2023-02-28T10:15:59;102171.16;;;2.24;50.96
48015;BME280;33780;51.034;7.120;2023-02-28T10:18:32;102171.06;;;2.27;51.45
48015;BME280;33780;51.034;7.120;2023-02-28T10:21:02;102175.34;;;2.31;50.49
48015;BME280;33780;51.034;7.120;2023-02-28T10:23:34;102166.50;;;2.34;49.88
48015;BME280;33780;51.034;7.120;2023-02-28T10:26:08;102176.88;;;2.40;51.26
48015;BME280;33780;51.034;7.120;2023-02-28T10:28:36;102175.00;;;2.43;50.12
48015;BME280;33780;51.034;7.120;2023-02-28T10:31:01;102167.84;;;2.47;51.08
48015;BME280;33780;51.034;7.120;2023-02-28T10:33:31;102174.91;;;2.47;51.07
48015;BME280;33780;51.034;7.120;2023-02-28T10:35:57;102175.84;;;2.46;50.18
48015;BME280;33780;51.034;7.120;2023-02-28T10:38:37;102171.56;;;2.41;46.59
48015;BME280;33780;51.034;7.120;2023-02-28T10:41:09;102165.25;;;2.46;49.88
48015;BME280;33780;51.034;7.120;2023-02-28T10:43:35;102156.22;;;2.54;50.08
48015;BME280;33780;51.034;7.120;2023-02-28T10:48:49;102154.88;;;2.69;49.98
48015;BME280;33780;51.034;7.120;2023-02-28T10:51:18;102149.38;;;2.77;49.43
48015;BME280;33780;51.034;7.120;2023-02-28T10:53:51;102139.41;;;2.85;50.30
48015;BME280;33780;51.034;7.120;2023-02-28T10:56:19;102147.22;;;2.89;49.89
48015;BME280;33780;51.034;7.120;2023-02-28T11:01:41;102134.38;;;3.05;50.13
48015;BME280;33780;51.034;7.120;2023-02-28T11:04:32;102133.38;;;3.09;49.70
48015;BME280;33780;51.034;7.120;2023-02-28T11:07:00;102132.56;;;3.07;49.95
48015;BME280;33780;51.034;7.120;2023-02-28T11:09:30;102140.41;;;3.10;50.36
48015;BME280;33780;51.034;7.120;2023-02-28T11:11:58;102137.69;;;3.12;48.22
48015;BME280;33780;51.034;7.120;2023-02-28T11:14:26;102127.00;;;3.15;48.74
48015;BME280;33780;51.034;7.120;2023-02-28T11:16:54;102123.28;;;3.20;49.75
48015;BME280;33780;51.034;7.120;2023-02-28T11:19:27;102126.72;;;3.24;47.66
48015;BME280;33780;51.034;7.120;2023-02-28T11:21:59;102125.72;;;3.28;48.95
48015;BME280;33780;51.034;7.120;2023-02-28T11:24:28;102120.38;;;3.29;47.93
48015;BME280;33780;51.034;7.120;2023-02-28T11:26:55;102112.25;;;3.34;48.55
48015;BME280;33780;51.034;7.120;2023-02-28T11:32:13;102121.00;;;3.36;47.21
48015;BME280;33780;51.034;7.120;2023-02-28T11:34:41;102120.41;;;3.28;46.81
48015;BME280;33780;51.034;7.120;2023-02-28T11:37:13;102123.06;;;3.28;47.39
48015;BME280;33780;51.034;7.120;2023-02-28T11:39:40;102126.72;;;3.24;45.22
48015;BME280;33780;51.034;7.120;2023-02-28T11:45:02;102125.34;;;3.39;47.54
48015;BME280;33780;51.034;7.120;2023-02-28T11:47:42;102120.97;;;3.38;45.08
48015;BME280;33780;51.034;7.120;2023-02-28T11:50:32;102119.09;;;3.41;45.68
48015;BME280;33780;51.034;7.120;2023-02-28T11:53:16;102126.72;;;3.50;47.17
48015;BME280;33780;51.034;7.120;2023-02-28T12:01:47;102129.06;;;3.59;44.17
48015;BME280;33780;51.034;7.120;2023-02-28T12:04:40;102114.75;;;3.65;46.32
48015;BME280;33780;51.034;7.120;2023-02-28T12:07:31;102119.88;;;3.70;45.45
48015;BME280;33780;51.034;7.120;2023-02-28T12:13:11;102112.44;;;3.81;47.41
48015;BME280;33780;51.034;7.120;2023-02-28T12:15:53;102115.66;;;3.89;47.21
48015;BME280;33780;51.034;7.120;2023-02-28T12:24:22;102108.59;;;4.13;47.80
48015;BME280;33780;51.034;7.120;2023-02-28T12:26:57;102096.00;;;4.19;46.54
48015;BME280;33780;51.034;7.120;2023-02-28T12:29:32;102093.78;;;4.31;46.57
48015;BME280;33780;51.034;7.120;2023-02-28T12:32:20;102097.97;;;4.38;45.22
48015;BME280;33780;51.034;7.120;2023-02-28T12:34:53;102095.06;;;4.44;45.98
48015;BME280;33780;51.034;7.120;2023-02-28T12:37:36;102093.16;;;4.47;46.40
48015;BME280;33780;51.034;7.120;2023-02-28T12:42:54;102075.38;;;4.51;43.24
48015;BME280;33780;51.034;7.120;2023-02-28T12:45:55;102067.97;;;4.59;45.78
48015;BME280;33780;51.034;7.120;2023-02-28T12:48:56;102070.63;;;4.59;44.82
48015;BME280;33780;51.034;7.120;2023-02-28T12:51:28;102067.03;;;4.60;45.58
48015;BME280;33780;51.034;7.120;2023-02-28T12:54:29;102057.06;;;4.67;46.19
48015;BME280;33780;51.034;7.120;2023-02-28T12:57:36;102051.53;;;4.73;45.11
48015;BME280;33780;51.034;7.120;2023-02-28T13:00:21;102047.81;;;4.77;46.04
48015;BME280;33780;51.034;7.120;2023-02-28T13:11:38;102028.69;;;4.91;45.11
48015;BME280;33780;51.034;7.120;2023-02-28T13:17:11;102028.38;;;4.98;44.04
48015;BME280;33780;51.034;7.120;2023-02-28T13:23:16;102017.19;;;5.12;43.86
48015;BME280;33780;51.034;7.120;2023-02-28T13:25:56;102025.00;;;5.15;44.31
48015;BME280;33780;51.034;7.120;2023-02-28T13:34:39;102025.56;;;5.23;44.10
48015;BME280;33780;51.034;7.120;2023-02-28T13:37:35;102028.88;;;5.28;44.07
48015;BME280;33780;51.034;7.120;2023-02-28T13:42:51;102013.28;;;5.41;43.54
48015;BME280;33780;51.034;7.120;2023-02-28T13:45:30;102005.13;;;5.45;44.12
48015;BME280;33780;51.034;7.120;2023-02-28T13:51:53;102005.44;;;5.58;44.08
48015;BME280;33780;51.034;7.120;2023-02-28T14:09:06;101990.13;;;5.84;43.50
48015;BME280;33780;51.034;7.120;2023-02-28T14:11:41;101991.78;;;5.86;42.73
48015;BME280;33780;51.034;7.120;2023-02-28T14:14:09;101988.84;;;5.92;43.47
48015;BME280;33780;51.034;7.120;2023-02-28T14:16:54;101993.03;;;5.98;43.75
48015;BME280;33780;51.034;7.120;2023-02-28T14:19:31;101990.94;;;6.04;43.50
48015;BME280;33780;51.034;7.120;2023-02-28T14:30:14;101980.25;;;6.06;42.50
48015;BME280;33780;51.034;7.120;2023-02-28T14:32:45;101982.91;;;6.06;41.68
48015;BME280;33780;51.034;7.120;2023-02-28T14:35:29;101981.81;;;6.10;42.86
48015;BME280;33780;51.034;7.120;2023-02-28T14:38:04;101981.81;;;6.10;41.35
48015;BME280;33780;51.034;7.120;2023-02-28T14:40:35;101978.13;;;6.14;42.08
48015;BME280;33780;51.034;7.120;2023-02-28T14:43:05;101974.44;;;6.17;42.18
48015;BME280;33780;51.034;7.120;2023-02-28T14:45:33;101982.13;;;6.23;42.67
48015;BME280;33780;51.034;7.120;2023-02-28T14:48:01;101971.34;;;6.26;42.57
48015;BME280;33780;51.034;7.120;2023-02-28T14:50:31;101974.00;;;6.26;39.62
48015;BME280;33780;51.034;7.120;2023-02-28T14:52:57;101973.88;;;6.29;41.51
48015;BME280;33780;51.034;7.120;2023-02-28T14:55:26;101975.44;;;6.33;42.12